Terminal Aerodrome Forecast
Issued by NWS

Home | Current Version | Previous Version | Text Only | Print | Product List | Glossary On
Versions: 1 2 3 4 5 6 7 8 9 10 11 12 13 14 15 16 17 18 19 20 21 22 23
643
FTUS43 KDLH 261434 AAB
TAFBRD
TAF AMD
KBRD 261434Z 2615/2712 22008KT P6SM SCT010
      TEMPO 2615/2618 BKN008
     FM261800 25014KT P6SM SCT060
     FM270100 27004KT P6SM SCT080
     FM270500 00000KT 1SM BR BKN012=

USA.gov is the U.S. government's official web portal to all federal, state and local government web resources and services.